sensor_id;sensor_type;location;lat;lon;timestamp;temperature;humidity
11246;DHT22;59870;50.106;8.580;2023-05-24T00:01:19;16.30;64.20
11246;DHT22;59870;50.106;8.580;2023-05-24T00:03:53;16.30;64.20
11246;DHT22;59870;50.106;8.580;2023-05-24T00:06:20;16.30;64.40
11246;DHT22;59870;50.106;8.580;2023-05-24T00:08:48;16.60;64.40
11246;DHT22;59870;50.106;8.580;2023-05-24T00:11:15;16.10;64.00
11246;DHT22;59870;50.106;8.580;2023-05-24T00:13:43;16.10;64.10
11246;DHT22;59870;50.106;8.580;2023-05-24T00:16:11;16.10;64.70
11246;DHT22;59870;50.106;8.580;2023-05-24T00:18:39;16.70;65.50
11246;DHT22;59870;50.106;8.580;2023-05-24T00:21:13;16.00;65.40
11246;DHT22;59870;50.106;8.580;2023-05-24T00:23:41;16.00;65.50
11246;DHT22;59870;50.106;8.580;2023-05-24T00:26:10;15.90;65.20
11246;DHT22;59870;50.106;8.580;2023-05-24T00:28:39;16.40;66.00
11246;DHT22;59870;50.106;8.580;2023-05-24T00:31:07;16.20;65.60
11246;DHT22;59870;50.106;8.580;2023-05-24T00:33:35;15.80;65.20
11246;DHT22;59870;50.106;8.580;2023-05-24T00:36:02;16.20;65.60
11246;DHT22;59870;50.106;8.580;2023-05-24T00:38:30;15.80;65.40
11246;DHT22;59870;50.106;8.580;2023-05-24T00:40:57;15.70;65.00
11246;DHT22;59870;50.106;8.580;2023-05-24T00:43:27;15.70;65.20
11246;DHT22;59870;50.106;8.580;2023-05-24T00:48:42;15.60;65.10
11246;DHT22;59870;50.106;8.580;2023-05-24T00:51:12;15.70;65.30
11246;DHT22;59870;50.106;8.580;2023-05-24T00:53:41;15.60;65.50
11246;DHT22;59870;50.106;8.580;2023-05-24T00:56:13;15.90;65.30
11246;DHT22;59870;50.106;8.580;2023-05-24T00:58:41;16.00;65.50
11246;DHT22;59870;50.106;8.580;2023-05-24T01:01:10;15.90;65.20
11246;DHT22;59870;50.106;8.580;2023-05-24T01:03:38;15.40;64.40
11246;DHT22;59870;50.106;8.580;2023-05-24T01:06:06;15.40;64.80
11246;DHT22;59870;50.106;8.580;2023-05-24T01:08:58;15.30;65.20
11246;DHT22;59870;50.106;8.580;2023-05-24T01:17:08;15.00;65.70
11246;DHT22;59870;50.106;8.580;2023-05-24T01:25:39;14.80;66.00
11246;DHT22;59870;50.106;8.580;2023-05-24T01:28:11;14.70;65.90
11246;DHT22;59870;50.106;8.580;2023-05-24T01:30:40;14.70;66.30
11246;DHT22;59870;50.106;8.580;2023-05-24T01:33:08;15.10;66.30
11246;DHT22;59870;50.106;8.580;2023-05-24T01:35:36;14.60;65.50
11246;DHT22;59870;50.106;8.580;2023-05-24T01:38:07;14.60;65.50
11246;DHT22;59870;50.106;8.580;2023-05-24T01:40:36;14.60;65.40
11246;DHT22;59870;50.106;8.580;2023-05-24T01:43:16;14.50;65.00
11246;DHT22;59870;50.106;8.580;2023-05-24T01:46:05;14.50;65.10
11246;DHT22;59870;50.106;8.580;2023-05-24T01:48:54;14.50;65.00
11246;DHT22;59870;50.106;8.580;2023-05-24T01:51:24;14.40;64.80
11246;DHT22;59870;50.106;8.580;2023-05-24T01:53:57;14.80;65.00
11246;DHT22;59870;50.106;8.580;2023-05-24T01:56:26;14.40;64.40
11246;DHT22;59870;50.106;8.580;2023-05-24T01:58:55;14.40;64.60
11246;DHT22;59870;50.106;8.580;2023-05-24T02:01:25;14.70;64.90
11246;DHT22;59870;50.106;8.580;2023-05-24T02:03:54;14.40;64.70
11246;DHT22;59870;50.106;8.580;2023-05-24T02:06:22;14.80;65.20
11246;DHT22;59870;50.106;8.580;2023-05-24T02:08:49;15.00;65.60
11246;DHT22;59870;50.106;8.580;2023-05-24T02:11:18;14.40;65.40
11246;DHT22;59870;50.106;8.580;2023-05-24T02:13:46;14.80;66.00
11246;DHT22;59870;50.106;8.580;2023-05-24T02:16:13;15.00;66.30
11246;DHT22;59870;50.106;8.580;2023-05-24T02:18:41;14.70;66.20
11246;DHT22;59870;50.106;8.580;2023-05-24T02:21:11;14.70;66.50
11246;DHT22;59870;50.106;8.580;2023-05-24T02:23:39;14.70;66.40
11246;DHT22;59870;50.106;8.580;2023-05-24T02:26:07;14.90;66.70
11246;DHT22;59870;50.106;8.580;2023-05-24T02:28:37;14.30;65.90
11246;DHT22;59870;50.106;8.580;2023-05-24T02:31:05;14.30;66.10
11246;DHT22;59870;50.106;8.580;2023-05-24T02:33:32;14.70;66.50
11246;DHT22;59870;50.106;8.580;2023-05-24T02:36:01;14.20;66.10
11246;DHT22;59870;50.106;8.580;2023-05-24T02:38:29;14.80;66.80
11246;DHT22;59870;50.106;8.580;2023-05-24T02:40:58;14.20;66.20
11246;DHT22;59870;50.106;8.580;2023-05-24T02:43:25;14.20;66.20
11246;DHT22;59870;50.106;8.580;2023-05-24T02:45:52;14.50;66.60
11246;DHT22;59870;50.106;8.580;2023-05-24T02:48:20;14.10;66.40
11246;DHT22;59870;50.106;8.580;2023-05-24T02:50:47;14.10;66.60
11246;DHT22;59870;50.106;8.580;2023-05-24T02:53:15;14.00;66.40
11246;DHT22;59870;50.106;8.580;2023-05-24T02:55:42;14.00;66.50
11246;DHT22;59870;50.106;8.580;2023-05-24T02:58:12;14.10;66.90
11246;DHT22;59870;50.106;8.580;2023-05-24T03:00:41;14.00;66.80
11246;DHT22;59870;50.106;8.580;2023-05-24T03:03:09;14.00;67.20
11246;DHT22;59870;50.106;8.580;2023-05-24T03:05:37;14.00;67.40
11246;DHT22;59870;50.106;8.580;2023-05-24T03:08:04;14.30;67.50
11246;DHT22;59870;50.106;8.580;2023-05-24T03:10:32;13.90;67.30
11246;DHT22;59870;50.106;8.580;2023-05-24T03:13:00;13.90;67.10
11246;DHT22;59870;50.106;8.580;2023-05-24T03:15:27;13.90;67.10
11246;DHT22;59870;50.106;8.580;2023-05-24T03:17:55;13.90;67.50
11246;DHT22;59870;50.106;8.580;2023-05-24T03:20:23;13.90;67.20
11246;DHT22;59870;50.106;8.580;2023-05-24T03:22:51;13.30;66.30
11246;DHT22;59870;50.106;8.580;2023-05-24T03:25:18;13.80;67.00
11246;DHT22;59870;50.106;8.580;2023-05-24T03:27:51;14.20;68.00
11246;DHT22;59870;50.106;8.580;2023-05-24T03:30:20;14.20;67.10
11246;DHT22;59870;50.106;8.580;2023-05-24T03:32:53;14.10;66.90
11246;DHT22;59870;50.106;8.580;2023-05-24T03:35:21;14.20;67.20
11246;DHT22;59870;50.106;8.580;2023-05-24T03:37:49;13.80;67.30
11246;DHT22;59870;50.106;8.580;2023-05-24T03:40:17;14.10;67.80
11246;DHT22;59870;50.106;8.580;2023-05-24T03:42:53;13.80;67.70
11246;DHT22;59870;50.106;8.580;2023-05-24T03:45:30;14.20;68.00
11246;DHT22;59870;50.106;8.580;2023-05-24T03:48:06;13.80;67.10
11246;DHT22;59870;50.106;8.580;2023-05-24T03:50:34;13.70;67.30
11246;DHT22;59870;50.106;8.580;2023-05-24T03:53:02;13.70;67.60
11246;DHT22;59870;50.106;8.580;2023-05-24T03:55:29;14.10;68.20
11246;DHT22;59870;50.106;8.580;2023-05-24T03:58:02;13.70;67.30
11246;DHT22;59870;50.106;8.580;2023-05-24T04:00:31;13.70;68.50
11246;DHT22;59870;50.106;8.580;2023-05-24T04:03:00;13.70;68.10
11246;DHT22;59870;50.106;8.580;2023-05-24T04:05:28;13.20;67.40
11246;DHT22;59870;50.106;8.580;2023-05-24T04:07:57;14.00;68.00
11246;DHT22;59870;50.106;8.580;2023-05-24T04:10:24;13.60;68.50
11246;DHT22;59870;50.106;8.580;2023-05-24T04:12:52;13.90;68.70
11246;DHT22;59870;50.106;8.580;2023-05-24T04:15:20;13.70;68.60
11246;DHT22;59870;50.106;8.580;2023-05-24T04:17:49;14.00;68.10
11246;DHT22;59870;50.106;8.580;2023-05-24T04:20:22;14.00;69.10
11246;DHT22;59870;50.106;8.580;2023-05-24T04:22:54;13.60;69.30
11246;DHT22;59870;50.106;8.580;2023-05-24T04:25:22;13.90;68.00
11246;DHT22;59870;50.106;8.580;2023-05-24T04:27:50;14.10;67.70
11246;DHT22;59870;50.106;8.580;2023-05-24T04:30:19;13.90;67.90
11246;DHT22;59870;50.106;8.580;2023-05-24T04:32:48;13.60;67.90
11246;DHT22;59870;50.106;8.580;2023-05-24T04:35:47;13.90;67.50
11246;DHT22;59870;50.106;8.580;2023-05-24T04:38:16;13.60;67.40
11246;DHT22;59870;50.106;8.580;2023-05-24T04:40:46;13.60;67.10
11246;DHT22;59870;50.106;8.580;2023-05-24T04:43:14;13.70;67.00
11246;DHT22;59870;50.106;8.580;2023-05-24T04:45:45;13.10;66.30
11246;DHT22;59870;50.106;8.580;2023-05-24T04:48:35;14.00;67.30
11246;DHT22;59870;50.106;8.580;2023-05-24T04:51:05;13.70;67.00
11246;DHT22;59870;50.106;8.580;2023-05-24T04:53:32;13.70;66.90
11246;DHT22;59870;50.106;8.580;2023-05-24T04:56:00;13.70;66.40
11246;DHT22;59870;50.106;8.580;2023-05-24T04:58:27;13.80;66.50
11246;DHT22;59870;50.106;8.580;2023-05-24T05:01:22;13.80;66.70
11246;DHT22;59870;50.106;8.580;2023-05-24T05:04:45;13.90;67.00
11246;DHT22;59870;50.106;8.580;2023-05-24T06:13:57;18.90;56.50
11246;DHT22;59870;50.106;8.580;2023-05-24T06:51:42;19.90;50.30
11246;DHT22;59870;50.106;8.580;2023-05-24T06:57:31;20.20;50.60
11246;DHT22;59870;50.106;8.580;2023-05-24T07:07:28;20.70;49.20
11246;DHT22;59870;50.106;8.580;2023-05-24T07:10:52;21.10;47.20
11246;DHT22;59870;50.106;8.580;2023-05-24T07:22:40;21.80;46.90
11246;DHT22;59870;50.106;8.580;2023-05-24T07:25:08;22.00;45.90
11246;DHT22;59870;50.106;8.580;2023-05-24T07:27:36;22.20;45.80
11246;DHT22;59870;50.106;8.580;2023-05-24T07:30:04;22.40;45.00
11246;DHT22;59870;50.106;8.580;2023-05-24T07:39:15;22.60;46.30
11246;DHT22;59870;50.106;8.580;2023-05-24T07:48:03;23.20;43.90
11246;DHT22;59870;50.106;8.580;2023-05-24T07:50:44;23.30;42.60
11246;DHT22;59870;50.106;8.580;2023-05-24T07:53:16;23.30;43.20
11246;DHT22;59870;50.106;8.580;2023-05-24T07:58:53;23.10;43.30
11246;DHT22;59870;50.106;8.580;2023-05-24T08:01:25;23.20;43.50
11246;DHT22;59870;50.106;8.580;2023-05-24T08:03:54;23.70;43.50
11246;DHT22;59870;50.106;8.580;2023-05-24T08:06:23;23.70;43.00
11246;DHT22;59870;50.106;8.580;2023-05-24T08:08:50;23.70;43.10
11246;DHT22;59870;50.106;8.580;2023-05-24T08:11:18;23.80;42.90
11246;DHT22;59870;50.106;8.580;2023-05-24T08:13:46;23.50;42.90
11246;DHT22;59870;50.106;8.580;2023-05-24T08:16:13;23.30;42.20
11246;DHT22;59870;50.106;8.580;2023-05-24T08:18:41;23.10;42.90
11246;DHT22;59870;50.106;8.580;2023-05-24T08:54:48;19.50;48.80
11246;DHT22;59870;50.106;8.580;2023-05-24T08:57:20;19.60;48.00
11246;DHT22;59870;50.106;8.580;2023-05-24T09:00:35;19.80;48.10
11246;DHT22;59870;50.106;8.580;2023-05-24T09:15:43;21.80;45.50
11246;DHT22;59870;50.106;8.580;2023-05-24T09:18:15;22.70;44.00
11246;DHT22;59870;50.106;8.580;2023-05-24T09:20:46;22.50;43.70
11246;DHT22;59870;50.106;8.580;2023-05-24T09:23:14;23.00;43.10
11246;DHT22;59870;50.106;8.580;2023-05-24T09:25:44;22.80;42.40
11246;DHT22;59870;50.106;8.580;2023-05-24T09:28:16;23.10;41.80
11246;DHT22;59870;50.106;8.580;2023-05-24T09:30:57;24.00;43.80
11246;DHT22;59870;50.106;8.580;2023-05-24T09:33:30;23.80;41.70
11246;DHT22;59870;50.106;8.580;2023-05-24T09:36:00;23.90;40.90
11246;DHT22;59870;50.106;8.580;2023-05-24T09:38:27;24.00;40.60
11246;DHT22;59870;50.106;8.580;2023-05-24T09:41:04;24.10;40.60
11246;DHT22;59870;50.106;8.580;2023-05-24T09:43:33;24.00;41.00
11246;DHT22;59870;50.106;8.580;2023-05-24T09:46:02;24.10;41.20
11246;DHT22;59870;50.106;8.580;2023-05-24T09:48:30;23.50;41.10
11246;DHT22;59870;50.106;8.580;2023-05-24T09:51:04;23.30;41.40
11246;DHT22;59870;50.106;8.580;2023-05-24T09:53:36;23.30;43.10
11246;DHT22;59870;50.106;8.580;2023-05-24T09:56:08;23.20;42.00
11246;DHT22;59870;50.106;8.580;2023-05-24T09:58:36;23.20;42.70
11246;DHT22;59870;50.106;8.580;2023-05-24T10:01:08;23.00;41.70
11246;DHT22;59870;50.106;8.580;2023-05-24T10:07:20;22.80;42.20
11246;DHT22;59870;50.106;8.580;2023-05-24T10:13:39;22.40;43.30
11246;DHT22;59870;50.106;8.580;2023-05-24T10:16:23;22.30;42.90
11246;DHT22;59870;50.106;8.580;2023-05-24T10:26:57;21.90;41.90
11246;DHT22;59870;50.106;8.580;2023-05-24T10:30:18;21.90;43.40
11246;DHT22;59870;50.106;8.580;2023-05-24T10:32:55;21.80;43.30
11246;DHT22;59870;50.106;8.580;2023-05-24T10:35:24;21.80;43.90
11246;DHT22;59870;50.106;8.580;2023-05-24T10:37:57;22.10;44.20
11246;DHT22;59870;50.106;8.580;2023-05-24T10:43:39;21.70;44.20
11246;DHT22;59870;50.106;8.580;2023-05-24T10:46:14;21.60;43.20
11246;DHT22;59870;50.106;8.580;2023-05-24T10:52:15;21.50;44.70
11246;DHT22;59870;50.106;8.580;2023-05-24T11:01:13;21.40;43.70
11246;DHT22;59870;50.106;8.580;2023-05-24T11:35:57;21.00;45.90
11246;DHT22;59870;50.106;8.580;2023-05-24T11:38:29;20.90;45.70
11246;DHT22;59870;50.106;8.580;2023-05-24T11:46:30;20.80;46.50
11246;DHT22;59870;50.106;8.580;2023-05-24T11:49:03;20.80;45.60
11246;DHT22;59870;50.106;8.580;2023-05-24T11:57:49;20.70;45.90
11246;DHT22;59870;50.106;8.580;2023-05-24T12:09:59;20.70;47.00
11246;DHT22;59870;50.106;8.580;2023-05-24T12:22:27;20.70;46.40
11246;DHT22;59870;50.106;8.580;2023-05-24T13:03:50;19.70;48.00
11246;DHT22;59870;50.106;8.580;2023-05-24T13:06:43;19.60;47.60
11246;DHT22;59870;50.106;8.580;2023-05-24T13:10:04;19.60;48.40
11246;DHT22;59870;50.106;8.580;2023-05-24T13:13:29;19.00;48.20
11246;DHT22;59870;50.106;8.580;2023-05-24T13:16:24;19.90;47.20
11246;DHT22;59870;50.106;8.580;2023-05-24T13:28:46;19.80;48.10
11246;DHT22;59870;50.106;8.580;2023-05-24T13:32:26;19.80;46.10
11246;DHT22;59870;50.106;8.580;2023-05-24T13:35:12;19.70;47.80
11246;DHT22;59870;50.106;8.580;2023-05-24T13:48:21;19.70;48.10
11246;DHT22;59870;50.106;8.580;2023-05-24T13:51:20;19.70;47.10
11246;DHT22;59870;50.106;8.580;2023-05-24T14:18:08;19.50;47.20
11246;DHT22;59870;50.106;8.580;2023-05-24T14:21:24;19.40;47.50
11246;DHT22;59870;50.106;8.580;2023-05-24T14:25:25;19.30;46.30
11246;DHT22;59870;50.106;8.580;2023-05-24T14:28:24;18.80;46.40
11246;DHT22;59870;50.106;8.580;2023-05-24T14:31:02;18.90;46.20
11246;DHT22;59870;50.106;8.580;2023-05-24T14:34:10;19.60;46.90
11246;DHT22;59870;50.106;8.580;2023-05-24T14:36:44;19.50;45.90
11246;DHT22;59870;50.106;8.580;2023-05-24T14:39:14;19.50;47.10
11246;DHT22;59870;50.106;8.580;2023-05-24T14:41:42;19.50;46.80
11246;DHT22;59870;50.106;8.580;2023-05-24T14:44:09;19.40;47.80
11246;DHT22;59870;50.106;8.580;2023-05-24T14:46:40;19.80;47.40
11246;DHT22;59870;50.106;8.580;2023-05-24T14:49:08;19.50;48.10
11246;DHT22;59870;50.106;8.580;2023-05-24T14:51:35;19.70;47.20
11246;DHT22;59870;50.106;8.580;2023-05-24T14:54:03;19.60;47.40
11246;DHT22;59870;50.106;8.580;2023-05-24T14:56:32;19.60;48.10
11246;DHT22;59870;50.106;8.580;2023-05-24T14:59:00;19.60;46.80
11246;DHT22;59870;50.106;8.580;2023-05-24T15:01:28;19.60;46.00
11246;DHT22;59870;50.106;8.580;2023-05-24T15:03:57;19.60;46.20
11246;DHT22;59870;50.106;8.580;2023-05-24T15:06:25;19.60;46.80
11246;DHT22;59870;50.106;8.580;2023-05-24T15:08:52;19.60;46.20
11246;DHT22;59870;50.106;8.580;2023-05-24T15:11:22;19.60;47.00
11246;DHT22;59870;50.106;8.580;2023-05-24T15:13:52;19.60;46.90
11246;DHT22;59870;50.106;8.580;2023-05-24T15:16:34;19.60;46.20
11246;DHT22;59870;50.106;8.580;2023-05-24T15:19:02;19.60;45.40
11246;DHT22;59870;50.106;8.580;2023-05-24T15:21:31;19.60;45.00
11246;DHT22;59870;50.106;8.580;2023-05-24T15:23:59;19.50;45.20
11246;DHT22;59870;50.106;8.580;2023-05-24T15:26:27;19.50;44.90
11246;DHT22;59870;50.106;8.580;2023-05-24T15:28:55;19.60;44.70
11246;DHT22;59870;50.106;8.580;2023-05-24T15:31:24;20.00;46.40
11246;DHT22;59870;50.106;8.580;2023-05-24T15:33:55;19.60;45.10
11246;DHT22;59870;50.106;8.580;2023-05-24T15:36:23;20.00;45.10
11246;DHT22;59870;50.106;8.580;2023-05-24T15:38:51;19.60;44.60
11246;DHT22;59870;50.106;8.580;2023-05-24T15:41:25;20.10;44.60
11246;DHT22;59870;50.106;8.580;2023-05-24T15:44:49;19.80;44.50
11246;DHT22;59870;50.106;8.580;2023-05-24T15:47:16;19.70;43.30
11246;DHT22;59870;50.106;8.580;2023-05-24T15:49:53;19.70;44.30
11246;DHT22;59870;50.106;8.580;2023-05-24T15:52:25;19.60;43.70
11246;DHT22;59870;50.106;8.580;2023-05-24T15:54:53;19.60;43.90
11246;DHT22;59870;50.106;8.580;2023-05-24T15:57:20;19.60;44.80
11246;DHT22;59870;50.106;8.580;2023-05-24T15:59:48;19.60;44.20
11246;DHT22;59870;50.106;8.580;2023-05-24T16:02:15;19.60;44.60
11246;DHT22;59870;50.106;8.580;2023-05-24T16:04:43;19.80;45.20
11246;DHT22;59870;50.106;8.580;2023-05-24T16:07:11;19.70;44.30
11246;DHT22;59870;50.106;8.580;2023-05-24T16:09:43;20.20;45.40
11246;DHT22;59870;50.106;8.580;2023-05-24T16:12:12;19.80;45.20
11246;DHT22;59870;50.106;8.580;2023-05-24T16:14:40;19.90;45.00
11246;DHT22;59870;50.106;8.580;2023-05-24T16:20:53;20.00;44.10
11246;DHT22;59870;50.106;8.580;2023-05-24T16:23:21;19.90;44.30
11246;DHT22;59870;50.106;8.580;2023-05-24T16:25:50;20.40;44.50
11246;DHT22;59870;50.106;8.580;2023-05-24T16:28:22;19.90;45.20
11246;DHT22;59870;50.106;8.580;2023-05-24T16:31:17;19.90;43.80
11246;DHT22;59870;50.106;8.580;2023-05-24T16:33:47;19.80;44.50
11246;DHT22;59870;50.106;8.580;2023-05-24T16:36:21;19.80;44.30
11246;DHT22;59870;50.106;8.580;2023-05-24T16:38:50;19.80;43.20
11246;DHT22;59870;50.106;8.580;2023-05-24T16:41:47;19.70;43.60
11246;DHT22;59870;50.106;8.580;2023-05-24T16:44:47;19.70;42.60
11246;DHT22;59870;50.106;8.580;2023-05-24T16:51:06;19.60;43.20
11246;DHT22;59870;50.106;8.580;2023-05-24T16:54:25;19.10;41.50
11246;DHT22;59870;50.106;8.580;2023-05-24T16:57:02;19.60;43.20
11246;DHT22;59870;50.106;8.580;2023-05-24T16:59:31;19.60;42.90
11246;DHT22;59870;50.106;8.580;2023-05-24T17:02:00;19.60;43.30
11246;DHT22;59870;50.106;8.580;2023-05-24T17:04:30;20.00;43.80
11246;DHT22;59870;50.106;8.580;2023-05-24T17:29:41;19.70;44.50
11246;DHT22;59870;50.106;8.580;2023-05-24T17:38:41;19.70;45.90
11246;DHT22;59870;50.106;8.580;2023-05-24T18:13:52;19.40;46.00
11246;DHT22;59870;50.106;8.580;2023-05-24T18:41:43;19.30;48.10
11246;DHT22;59870;50.106;8.580;2023-05-24T19:28:46;18.30;51.60
11246;DHT22;59870;50.106;8.580;2023-05-24T19:31:23;18.20;51.30
11246;DHT22;59870;50.106;8.580;2023-05-24T19:34:46;17.60;51.80
11246;DHT22;59870;50.106;8.580;2023-05-24T19:43:35;17.90;52.90
11246;DHT22;59870;50.106;8.580;2023-05-24T19:46:25;18.30;53.20
11246;DHT22;59870;50.106;8.580;2023-05-24T19:49:47;18.20;53.60
11246;DHT22;59870;50.106;8.580;2023-05-24T19:53:52;17.20;52.40
11246;DHT22;59870;50.106;8.580;2023-05-24T19:56:20;17.70;53.40
11246;DHT22;59870;50.106;8.580;2023-05-24T19:59:39;17.70;53.50
11246;DHT22;59870;50.106;8.580;2023-05-24T20:08:59;17.40;53.90
11246;DHT22;59870;50.106;8.580;2023-05-24T20:21:55;17.20;54.40
11246;DHT22;59870;50.106;8.580;2023-05-24T20:24:28;17.50;55.40
11246;DHT22;59870;50.106;8.580;2023-05-24T20:26:56;16.90;55.00
11246;DHT22;59870;50.106;8.580;2023-05-24T20:29:24;17.30;55.90
11246;DHT22;59870;50.106;8.580;2023-05-24T20:54:21;16.50;57.20
11246;DHT22;59870;50.106;8.580;2023-05-24T20:56:49;16.50;57.00
11246;DHT22;59870;50.106;8.580;2023-05-24T20:59:17;16.40;57.30
11246;DHT22;59870;50.106;8.580;2023-05-24T21:01:45;16.40;57.70
11246;DHT22;59870;50.106;8.580;2023-05-24T21:04:12;16.70;58.00
11246;DHT22;59870;50.106;8.580;2023-05-24T21:06:40;16.70;58.10
11246;DHT22;59870;50.106;8.580;2023-05-24T21:09:08;16.60;58.00
11246;DHT22;59870;50.106;8.580;2023-05-24T21:11:36;16.20;58.10
11246;DHT22;59870;50.106;8.580;2023-05-24T21:14:03;16.00;58.00
11246;DHT22;59870;50.106;8.580;2023-05-24T21:16:31;16.20;58.20
11246;DHT22;59870;50.106;8.580;2023-05-24T21:18:59;16.60;58.60
11246;DHT22;59870;50.106;8.580;2023-05-24T21:21:27;16.60;58.80
11246;DHT22;59870;50.106;8.580;2023-05-24T21:24:24;16.70;58.80
11246;DHT22;59870;50.106;8.580;2023-05-24T21:26:51;16.10;58.30
11246;DHT22;59870;50.106;8.580;2023-05-24T21:29:21;16.10;58.90
11246;DHT22;59870;50.106;8.580;2023-05-24T21:31:48;16.00;58.90
11246;DHT22;59870;50.106;8.580;2023-05-24T21:34:16;16.00;59.10
11246;DHT22;59870;50.106;8.580;2023-05-24T21:36:46;16.30;59.60
11246;DHT22;59870;50.106;8.580;2023-05-24T21:39:14;16.30;60.30
11246;DHT22;59870;50.106;8.580;2023-05-24T21:41:41;16.20;59.60
11246;DHT22;59870;50.106;8.580;2023-05-24T21:44:09;15.90;59.70
11246;DHT22;59870;50.106;8.580;2023-05-24T21:46:37;15.80;59.80
11246;DHT22;59870;50.106;8.580;2023-05-24T21:49:05;15.80;59.90
11246;DHT22;59870;50.106;8.580;2023-05-24T21:51:38;15.80;60.00
11246;DHT22;59870;50.106;8.580;2023-05-24T21:54:05;16.20;60.30
11246;DHT22;59870;50.106;8.580;2023-05-24T21:56:33;15.70;60.20
11246;DHT22;59870;50.106;8.580;2023-05-24T21:59:00;16.10;60.80
11246;DHT22;59870;50.106;8.580;2023-05-24T22:01:28;15.70;60.40
11246;DHT22;59870;50.106;8.580;2023-05-24T22:03:55;15.70;60.60
11246;DHT22;59870;50.106;8.580;2023-05-24T22:06:23;16.00;61.00
11246;DHT22;59870;50.106;8.580;2023-05-24T22:08:51;15.90;61.30
11246;DHT22;59870;50.106;8.580;2023-05-24T22:11:18;15.50;61.00
11246;DHT22;59870;50.106;8.580;2023-05-24T22:13:46;15.40;60.60
11246;DHT22;59870;50.106;8.580;2023-05-24T22:16:13;15.90;61.40
11246;DHT22;59870;50.106;8.580;2023-05-24T22:18:41;15.80;61.50
11246;DHT22;59870;50.106;8.580;2023-05-24T22:21:09;15.60;61.20
11246;DHT22;59870;50.106;8.580;2023-05-24T22:23:36;15.80;61.80
11246;DHT22;59870;50.106;8.580;2023-05-24T22:26:07;15.40;61.60
11246;DHT22;59870;50.106;8.580;2023-05-24T22:28:53;15.20;62.00
11246;DHT22;59870;50.106;8.580;2023-05-24T22:31:22;15.40;62.00
11246;DHT22;59870;50.106;8.580;2023-05-24T22:33:50;15.30;62.30
11246;DHT22;59870;50.106;8.580;2023-05-24T22:36:17;15.60;62.40
11246;DHT22;59870;50.106;8.580;2023-05-24T22:38:45;15.20;62.60
11246;DHT22;59870;50.106;8.580;2023-05-24T22:41:14;15.20;62.60
11246;DHT22;59870;50.106;8.580;2023-05-24T22:43:47;15.50;62.30
11246;DHT22;59870;50.106;8.580;2023-05-24T22:46:15;15.10;62.60
11246;DHT22;59870;50.106;8.580;2023-05-24T22:48:44;15.50;63.80
11246;DHT22;59870;50.106;8.580;2023-05-24T22:51:12;15.40;64.30
11246;DHT22;59870;50.106;8.580;2023-05-24T22:56:58;15.00;64.10
11246;DHT22;59870;50.106;8.580;2023-05-24T22:59:26;14.80;64.50
11246;DHT22;59870;50.106;8.580;2023-05-24T23:01:57;15.00;65.10
11246;DHT22;59870;50.106;8.580;2023-05-24T23:04:25;15.20;65.70
11246;DHT22;59870;50.106;8.580;2023-05-24T23:06:54;14.90;65.90
11246;DHT22;59870;50.106;8.580;2023-05-24T23:09:23;15.20;66.80
11246;DHT22;59870;50.106;8.580;2023-05-24T23:12:04;14.80;66.50
11246;DHT22;59870;50.106;8.580;2023-05-24T23:14:36;14.70;66.80
11246;DHT22;59870;50.106;8.580;2023-05-24T23:17:10;15.10;68.10
11246;DHT22;59870;50.106;8.580;2023-05-24T23:22:56;14.60;68.60
11246;DHT22;59870;50.106;8.580;2023-05-24T23:25:29;15.00;69.30
11246;DHT22;59870;50.106;8.580;2023-05-24T23:27:58;14.90;69.20
11246;DHT22;59870;50.106;8.580;2023-05-24T23:30:28;14.90;70.60
11246;DHT22;59870;50.106;8.580;2023-05-24T23:32:55;14.90;70.80
11246;DHT22;59870;50.106;8.580;2023-05-24T23:35:23;14.40;70.30
11246;DHT22;59870;50.106;8.580;2023-05-24T23:37:50;14.40;71.30
11246;DHT22;59870;50.106;8.580;2023-05-24T23:40:20;14.40;72.10
11246;DHT22;59870;50.106;8.580;2023-05-24T23:42:48;14.30;72.20
11246;DHT22;59870;50.106;8.580;2023-05-24T23:45:15;14.70;72.70
11246;DHT22;59870;50.106;8.580;2023-05-24T23:48:10;14.30;73.10
11246;DHT22;59870;50.106;8.580;2023-05-24T23:50:37;14.30;72.50
11246;DHT22;59870;50.106;8.580;2023-05-24T23:53:20;14.30;73.50
11246;DHT22;59870;50.106;8.580;2023-05-24T23:55:48;14.30;74.10
11246;DHT22;59870;50.106;8.580;2023-05-24T23:58:16;14.70;74.90
